createdAt,value
2022-12-03T00:01:36.790Z,88.20
2022-12-03T00:04:04.999Z,85.90
2022-12-03T00:06:34.732Z,86.30
2022-12-03T00:09:03.124Z,88.50
2022-12-03T00:11:30.820Z,104.20
2022-12-03T00:13:58.534Z,97.90
2022-12-03T00:16:26.555Z,89.20
2022-12-03T00:18:54.821Z,80.60
2022-12-03T00:21:24.650Z,85.90
2022-12-03T00:23:52.646Z,82.80
2022-12-03T00:26:20.472Z,79.60
2022-12-03T00:28:49.153Z,85.30
2022-12-03T00:31:21.063Z,80.80
2022-12-03T00:33:49.774Z,75.90
2022-12-03T00:36:17.740Z,81.70
2022-12-03T00:38:45.673Z,78.90
2022-12-03T00:41:13.891Z,80.00
2022-12-03T00:43:41.677Z,83.90
2022-12-03T00:46:09.624Z,83.20
2022-12-03T00:48:37.422Z,76.50
2022-12-03T00:51:05.221Z,68.50
2022-12-03T00:53:33.028Z,101.30
2022-12-03T00:56:01.878Z,66.60
2022-12-03T00:58:29.734Z,67.60
2022-12-03T01:00:57.368Z,80.20
2022-12-03T01:03:25.131Z,77.70
2022-12-03T01:05:54.225Z,67.90
2022-12-03T01:08:22.385Z,68.80
2022-12-03T01:10:50.158Z,75.90
2022-12-03T01:13:17.792Z,86.00
2022-12-03T01:15:45.585Z,79.90
2022-12-03T01:18:13.286Z,73.40
2022-12-03T01:20:41.013Z,83.60
2022-12-03T01:23:08.776Z,59.60
2022-12-03T01:25:36.468Z,76.90
2022-12-03T01:28:04.194Z,81.30
2022-12-03T01:30:51.915Z,62.00
2022-12-03T01:33:19.644Z,75.20
2022-12-03T01:35:47.340Z,70.90
2022-12-03T01:38:22.718Z,77.40
2022-12-03T01:40:50.608Z,71.40
2022-12-03T01:43:18.256Z,70.80
2022-12-03T01:45:46.032Z,64.10
2022-12-03T01:48:16.631Z,61.90
2022-12-03T01:50:44.581Z,65.00
2022-12-03T01:53:15.189Z,71.80
2022-12-03T01:55:48.889Z,68.20
2022-12-03T02:00:44.629Z,76.20
2022-12-03T02:03:15.248Z,60.70
2022-12-03T02:05:43.170Z,74.70
2022-12-03T02:08:46.539Z,68.50
2022-12-03T02:11:19.803Z,74.40
2022-12-03T02:13:49.281Z,81.10
2022-12-03T02:16:17.215Z,70.70
2022-12-03T02:18:45.234Z,79.60
2022-12-03T02:21:17.372Z,69.70
2022-12-03T02:23:45.108Z,74.10
2022-12-03T02:26:12.875Z,89.60
2022-12-03T02:28:40.688Z,87.00
2022-12-03T02:31:08.455Z,74.00
2022-12-03T02:33:36.266Z,70.60
2022-12-03T02:36:04.406Z,69.30
2022-12-03T02:38:32.929Z,60.90
2022-12-03T02:41:03.620Z,64.20
2022-12-03T02:43:31.439Z,88.60
2022-12-03T02:46:00.250Z,81.30
2022-12-03T02:48:46.309Z,84.10
2022-12-03T02:51:14.057Z,68.40
2022-12-03T02:53:44.568Z,71.70
2022-12-03T02:56:14.728Z,69.60
2022-12-03T02:58:43.659Z,75.00
2022-12-03T03:01:18.356Z,64.00
2022-12-03T03:03:50.710Z,61.70
2022-12-03T03:06:19.573Z,71.50
2022-12-03T03:08:48.077Z,71.10
2022-12-03T03:11:15.767Z,79.60
2022-12-03T03:13:43.761Z,66.20
2022-12-03T03:16:11.616Z,71.80
2022-12-03T03:18:39.919Z,65.30
2022-12-03T03:21:07.706Z,69.10
2022-12-03T03:23:35.448Z,76.60
2022-12-03T03:26:07.694Z,76.40
2022-12-03T03:28:38.121Z,69.10
2022-12-03T03:31:07.389Z,67.50
2022-12-03T03:33:35.844Z,73.80
2022-12-03T03:36:03.661Z,63.20
2022-12-03T03:38:31.989Z,67.20
2022-12-03T03:41:00.272Z,69.60
2022-12-03T03:43:29.855Z,69.80
2022-12-03T03:45:57.730Z,63.60
2022-12-03T03:48:25.625Z,61.00
2022-12-03T03:50:53.479Z,61.60
2022-12-03T03:53:21.944Z,64.00
2022-12-03T03:55:50.083Z,61.90
2022-12-03T03:58:17.968Z,80.60
2022-12-03T04:00:46.181Z,68.40
2022-12-03T04:03:14.176Z,67.40
2022-12-03T04:05:42.005Z,71.90
2022-12-03T04:08:09.839Z,82.20
2022-12-03T04:11:00.342Z,75.50
2022-12-03T04:13:28.014Z,84.30
2022-12-03T04:16:02.121Z,70.80
2022-12-03T04:18:45.300Z,74.60
2022-12-03T04:21:33.162Z,65.90
2022-12-03T04:24:00.939Z,91.20
2022-12-03T04:26:47.708Z,73.20
2022-12-03T04:29:19.419Z,80.40
2022-12-03T04:32:05.990Z,83.10
2022-12-03T04:34:53.037Z,92.10
2022-12-03T04:37:21.031Z,90.80
2022-12-03T04:39:48.781Z,110.00
2022-12-03T04:42:16.553Z,87.90
2022-12-03T04:44:44.293Z,101.10
2022-12-03T04:47:13.356Z,119.70
2022-12-03T04:49:42.201Z,86.50
2022-12-03T04:52:17.048Z,83.30
2022-12-03T04:54:44.791Z,91.20
2022-12-03T04:57:12.706Z,91.30
2022-12-03T04:59:40.585Z,88.60
2022-12-03T05:02:08.468Z,69.00
2022-12-03T05:04:36.391Z,84.80
2022-12-03T05:07:04.047Z,66.60
2022-12-03T05:09:33.475Z,103.20
2022-12-03T05:12:01.594Z,82.60
2022-12-03T05:14:29.429Z,73.30
2022-12-03T05:16:57.258Z,75.40
2022-12-03T05:19:45.771Z,69.30
2022-12-03T05:22:13.509Z,75.30
2022-12-03T05:24:47.937Z,76.50
2022-12-03T05:27:20.197Z,91.90
2022-12-03T05:29:51.177Z,78.10
2022-12-03T05:32:19.454Z,97.00
2022-12-03T05:34:47.217Z,76.40
2022-12-03T05:37:15.105Z,88.90
2022-12-03T05:39:42.888Z,127.60
2022-12-03T05:42:29.677Z,91.40
2022-12-03T05:44:57.462Z,104.50
2022-12-03T05:47:25.142Z,87.90
2022-12-03T05:49:53.095Z,69.30
2022-12-03T05:52:20.791Z,82.90
2022-12-03T05:54:48.650Z,69.10
2022-12-03T05:57:16.247Z,98.30
2022-12-03T05:59:50.640Z,102.80
2022-12-03T06:02:22.292Z,86.70
2022-12-03T06:04:50.568Z,77.80
2022-12-03T06:07:18.621Z,103.10
2022-12-03T06:09:46.347Z,87.60
2022-12-03T06:12:14.129Z,91.40
2022-12-03T06:14:41.839Z,89.40
2022-12-03T06:17:09.579Z,112.30
2022-12-03T06:19:37.578Z,105.20
2022-12-03T06:22:05.328Z,110.20
2022-12-03T06:24:33.104Z,81.40
2022-12-03T06:27:00.774Z,98.90
2022-12-03T06:29:28.523Z,96.50
2022-12-03T06:31:56.263Z,94.10
2022-12-03T06:34:24.333Z,98.80
2022-12-03T06:36:52.215Z,106.70
2022-12-03T06:39:22.640Z,93.50
2022-12-03T06:41:50.297Z,113.90
2022-12-03T06:44:25.009Z,84.10
2022-12-03T06:46:53.128Z,88.70
2022-12-03T06:49:21.181Z,87.10
2022-12-03T06:51:48.931Z,88.50
2022-12-03T06:54:16.728Z,78.80
2022-12-03T06:56:45.988Z,77.00
2022-12-03T06:59:18.237Z,78.20
2022-12-03T07:01:46.060Z,90.90
2022-12-03T07:04:13.928Z,100.70
2022-12-03T07:06:41.992Z,84.90
2022-12-03T07:09:10.065Z,99.90
2022-12-03T07:11:41.270Z,81.80
2022-12-03T07:14:11.605Z,75.40
2022-12-03T07:16:40.029Z,93.30
2022-12-03T07:19:08.003Z,86.80
2022-12-03T07:21:36.367Z,92.40
2022-12-03T07:24:05.942Z,99.80
2022-12-03T07:26:34.147Z,131.60
2022-12-03T07:29:02.239Z,96.30
2022-12-03T07:31:30.532Z,90.90
2022-12-03T07:33:58.430Z,103.70
2022-12-03T07:36:26.282Z,106.30
2022-12-03T07:39:01.046Z,90.40
2022-12-03T07:41:28.875Z,92.10
2022-12-03T07:43:57.317Z,91.90
2022-12-03T07:46:25.173Z,133.60
2022-12-03T07:48:53.094Z,212.80
2022-12-03T07:51:21.371Z,127.50
2022-12-03T07:53:51.761Z,103.60
2022-12-03T07:56:19.746Z,129.00
2022-12-03T07:58:47.854Z,136.60
2022-12-03T08:01:15.766Z,124.20
2022-12-03T08:03:43.954Z,147.10
2022-12-03T08:06:11.723Z,115.50
2022-12-03T08:08:39.538Z,129.10
2022-12-03T08:11:10.623Z,88.50
2022-12-03T08:13:38.727Z,68.20
2022-12-03T08:16:18.106Z,78.30
2022-12-03T08:18:47.508Z,73.30
2022-12-03T08:21:16.678Z,86.30
2022-12-03T08:23:50.903Z,83.50
2022-12-03T08:26:18.765Z,72.40
2022-12-03T08:28:46.833Z,80.00
2022-12-03T08:31:21.241Z,87.00
2022-12-03T08:33:59.771Z,126.10
2022-12-03T08:36:32.924Z,121.30
2022-12-03T08:39:02.143Z,98.80
2022-12-03T08:41:49.055Z,103.50
2022-12-03T08:44:27.772Z,79.00
2022-12-03T08:47:01.665Z,58.70
2022-12-03T08:49:29.430Z,104.30
2022-12-03T08:51:59.426Z,64.00
2022-12-03T08:54:27.682Z,84.60
2022-12-03T08:56:55.569Z,68.60
2022-12-03T08:59:30.783Z,78.80
2022-12-03T09:01:59.604Z,110.90
2022-12-03T09:04:39.249Z,239.90
2022-12-03T09:07:07.722Z,128.80
2022-12-03T09:09:36.258Z,103.30
2022-12-03T09:12:04.540Z,79.50
2022-12-03T09:14:32.443Z,89.50
2022-12-03T09:17:00.669Z,93.80
2022-12-03T09:19:31.920Z,131.80
2022-12-03T09:22:00.489Z,97.50
2022-12-03T09:24:29.685Z,81.00
2022-12-03T09:27:05.332Z,90.40
2022-12-03T09:29:43.105Z,107.10
2022-12-03T09:32:19.130Z,150.90
2022-12-03T09:34:54.724Z,117.60
2022-12-03T09:37:26.814Z,180.10
2022-12-03T09:39:55.398Z,147.40
2022-12-03T09:42:26.540Z,111.90
2022-12-03T09:44:56.222Z,101.40
2022-12-03T09:47:25.276Z,93.40
2022-12-03T09:49:53.531Z,110.00
2022-12-03T09:52:29.459Z,111.50
2022-12-03T09:55:15.582Z,116.30
2022-12-03T09:57:43.603Z,149.30
2022-12-03T10:00:36.562Z,106.00
2022-12-03T10:03:07.705Z,116.50
2022-12-03T10:05:35.457Z,99.40
2022-12-03T10:08:15.883Z,98.40
2022-12-03T10:10:46.227Z,74.60
2022-12-03T10:13:25.454Z,75.40
2022-12-03T10:15:54.954Z,269.30
2022-12-03T10:18:26.406Z,109.90
2022-12-03T10:21:01.614Z,97.60
2022-12-03T10:23:30.593Z,109.70
2022-12-03T10:26:00.263Z,592.30
2022-12-03T10:28:36.473Z,361.40
2022-12-03T10:31:10.664Z,375.60
2022-12-03T10:33:42.882Z,354.80
2022-12-03T10:36:17.263Z,591.10
2022-12-03T10:38:45.374Z,316.60
2022-12-03T10:41:27.376Z,176.40
2022-12-03T10:44:11.199Z,226.60
2022-12-03T10:46:42.841Z,186.50
2022-12-03T10:49:16.715Z,232.50
2022-12-03T10:51:48.864Z,373.00
2022-12-03T10:54:19.627Z,338.50
2022-12-03T10:56:48.724Z,291.50
2022-12-03T10:59:18.850Z,176.10
2022-12-03T11:01:46.923Z,405.40
2022-12-03T11:04:34.297Z,334.20
2022-12-03T11:07:02.895Z,273.90
2022-12-03T11:09:33.344Z,400.10
2022-12-03T11:12:06.349Z,523.70
2022-12-03T11:15:05.329Z,245.30
2022-12-03T11:17:46.982Z,316.40
2022-12-03T11:20:22.950Z,284.00
2022-12-03T11:22:50.958Z,289.30
2022-12-03T11:25:25.458Z,315.90
2022-12-03T11:28:15.079Z,362.20
2022-12-03T11:30:49.182Z,243.40
2022-12-03T11:33:23.845Z,213.60
2022-12-03T11:36:04.473Z,172.40
2022-12-03T11:38:38.522Z,73.40
2022-12-03T11:43:52.970Z,114.80
2022-12-03T11:46:42.021Z,108.90
2022-12-03T11:49:24.831Z,100.60
2022-12-03T11:51:52.599Z,71.50
2022-12-03T11:54:22.126Z,93.20
2022-12-03T11:56:51.881Z,97.20
2022-12-03T11:59:20.927Z,73.40
2022-12-03T12:01:49.286Z,96.70
2022-12-03T12:04:28.000Z,162.20
2022-12-03T12:06:56.221Z,114.30
2022-12-03T12:09:43.561Z,127.30
2022-12-03T12:12:41.070Z,127.60
2022-12-03T12:15:29.131Z,112.90
2022-12-03T12:17:56.886Z,112.50
2022-12-03T12:20:27.385Z,134.70
2022-12-03T12:22:55.578Z,155.30
2022-12-03T12:25:31.646Z,146.30
2022-12-03T12:27:59.565Z,138.90
2022-12-03T12:30:27.635Z,97.70
2022-12-03T12:33:12.329Z,94.20
2022-12-03T12:35:41.254Z,188.30
2022-12-03T12:38:10.921Z,116.80
2022-12-03T12:40:39.741Z,268.20
2022-12-03T12:43:15.247Z,101.20
2022-12-03T12:45:45.835Z,76.70
2022-12-03T12:48:21.026Z,185.50
2022-12-03T12:50:51.891Z,175.90
2022-12-03T12:53:19.650Z,140.80
2022-12-03T12:55:48.614Z,82.80
2022-12-03T12:58:17.948Z,151.00
2022-12-03T13:00:50.943Z,106.80
2022-12-03T13:03:19.572Z,130.30
2022-12-03T13:05:48.585Z,136.00
2022-12-03T13:08:35.521Z,164.70
2022-12-03T13:11:03.526Z,89.60
2022-12-03T13:13:41.623Z,95.10
2022-12-03T13:16:16.352Z,98.40
2022-12-03T13:18:48.617Z,69.00
2022-12-03T13:21:22.187Z,97.00
2022-12-03T13:23:54.275Z,91.80
2022-12-03T13:26:34.529Z,103.20
2022-12-03T13:29:14.724Z,107.20
2022-12-03T13:31:50.463Z,97.20
2022-12-03T13:34:22.591Z,95.80
2022-12-03T13:36:56.986Z,85.80
2022-12-03T13:39:36.877Z,120.00
2022-12-03T13:42:45.651Z,144.10
2022-12-03T13:45:16.092Z,114.80
2022-12-03T13:47:48.264Z,188.40
2022-12-03T13:50:21.284Z,161.40
2022-12-03T13:52:49.160Z,137.20
2022-12-03T13:55:22.751Z,113.80
2022-12-03T13:57:50.745Z,161.40
2022-12-03T14:00:18.834Z,115.80
2022-12-03T14:02:46.826Z,159.20
2022-12-03T14:05:14.838Z,125.60
2022-12-03T14:07:42.701Z,88.60
2022-12-03T14:10:11.927Z,104.70
2022-12-03T14:12:39.683Z,126.10
2022-12-03T14:15:08.773Z,131.80
2022-12-03T14:17:36.698Z,168.80
2022-12-03T14:20:05.200Z,101.80
2022-12-03T14:22:33.030Z,108.90
2022-12-03T14:25:00.718Z,88.90
2022-12-03T14:27:30.543Z,99.00
2022-12-03T14:29:58.404Z,137.80
2022-12-03T14:32:26.190Z,139.80
2022-12-03T14:34:54.051Z,183.30
2022-12-03T14:37:21.786Z,189.20
2022-12-03T14:39:49.761Z,176.30
2022-12-03T14:42:18.345Z,110.00
2022-12-03T14:44:47.304Z,107.40
2022-12-03T14:47:16.344Z,88.30
2022-12-03T14:49:44.595Z,96.80
2022-12-03T14:52:13.015Z,87.60
2022-12-03T14:54:42.805Z,91.10
2022-12-03T14:57:12.833Z,139.50
2022-12-03T14:59:44.282Z,130.70
2022-12-03T15:02:12.907Z,113.40
2022-12-03T15:04:41.335Z,100.40
2022-12-03T15:07:09.586Z,120.80
2022-12-03T15:09:37.786Z,94.90
2022-12-03T15:12:06.348Z,129.60
2022-12-03T15:14:34.244Z,120.80
2022-12-03T15:17:02.174Z,102.00
2022-12-03T15:19:30.148Z,144.70
2022-12-03T15:22:09.252Z,155.20
2022-12-03T15:24:37.508Z,160.90
2022-12-03T15:27:05.271Z,116.20
2022-12-03T15:29:33.246Z,109.30
2022-12-03T15:32:03.164Z,96.80
2022-12-03T15:34:31.335Z,108.10
2022-12-03T15:36:59.868Z,109.30
2022-12-03T15:39:28.236Z,107.40
2022-12-03T15:41:56.041Z,143.90
2022-12-03T15:44:27.846Z,117.20
2022-12-03T15:46:55.687Z,85.00
2022-12-03T15:49:23.615Z,146.70
2022-12-03T15:51:52.175Z,87.90
2022-12-03T15:54:21.613Z,129.40
2022-12-03T15:56:57.641Z,128.20
2022-12-03T15:59:28.594Z,124.20
2022-12-03T16:02:00.887Z,129.10
2022-12-03T16:04:30.269Z,204.50
2022-12-03T16:06:59.617Z,159.60
2022-12-03T16:09:30.317Z,137.80
2022-12-03T16:11:59.802Z,116.40
2022-12-03T16:14:34.886Z,163.50
2022-12-03T16:17:03.918Z,152.90
2022-12-03T16:19:36.053Z,176.80
2022-12-03T16:22:06.209Z,166.30
2022-12-03T16:24:34.358Z,144.50
2022-12-03T16:27:02.569Z,183.20
2022-12-03T16:29:30.811Z,132.90
2022-12-03T16:31:58.661Z,144.30
2022-12-03T16:34:33.755Z,129.00
2022-12-03T16:37:01.658Z,151.20
2022-12-03T16:39:29.826Z,114.10
2022-12-03T16:41:58.182Z,111.40
2022-12-03T16:44:43.788Z,132.20
2022-12-03T16:47:16.144Z,96.30
2022-12-03T16:49:44.411Z,115.20
2022-12-03T16:52:12.816Z,145.00
2022-12-03T16:54:41.977Z,132.00
2022-12-03T16:57:11.601Z,168.10
2022-12-03T16:59:41.662Z,129.50
2022-12-03T17:02:13.130Z,117.80
2022-12-03T17:04:41.156Z,196.40
2022-12-03T17:07:08.907Z,182.80
2022-12-03T17:09:36.706Z,144.70
2022-12-03T17:12:04.954Z,162.50
2022-12-03T17:14:33.699Z,184.90
2022-12-03T17:17:01.594Z,229.90
2022-12-03T17:19:29.423Z,161.50
2022-12-03T17:22:00.158Z,170.20
2022-12-03T17:24:29.198Z,201.40
2022-12-03T17:26:57.878Z,166.00
2022-12-03T17:29:25.896Z,223.70
2022-12-03T17:31:53.721Z,202.60
2022-12-03T17:34:21.532Z,174.30
2022-12-03T17:36:50.616Z,182.60
2022-12-03T17:39:19.879Z,173.10
2022-12-03T17:41:47.563Z,124.80
2022-12-03T17:44:20.745Z,165.40
2022-12-03T17:46:49.340Z,165.40
2022-12-03T17:49:17.307Z,181.20
2022-12-03T17:51:45.760Z,138.20
2022-12-03T17:54:14.286Z,166.50
2022-12-03T17:56:44.018Z,153.10
2022-12-03T17:59:14.268Z,177.30
2022-12-03T18:01:43.281Z,165.60
2022-12-03T18:04:11.600Z,165.70
2022-12-03T18:06:40.075Z,145.60
2022-12-03T18:09:07.861Z,139.50
2022-12-03T18:11:37.426Z,151.70
2022-12-03T18:14:07.224Z,146.00
2022-12-03T18:16:35.047Z,148.60
2022-12-03T18:19:06.271Z,182.70
2022-12-03T18:21:34.973Z,194.60
2022-12-03T18:24:09.766Z,279.40
2022-12-03T18:26:38.212Z,217.20
2022-12-03T18:29:08.724Z,246.00
2022-12-03T18:31:36.573Z,337.10
2022-12-03T18:34:05.676Z,262.10
2022-12-03T18:36:36.154Z,385.70
2022-12-03T18:39:06.141Z,403.80
2022-12-03T18:41:53.946Z,294.60
2022-12-03T18:44:23.667Z,266.60
2022-12-03T18:46:54.456Z,249.50
2022-12-03T18:49:23.270Z,192.10
2022-12-03T18:51:56.032Z,269.80
2022-12-03T18:54:26.923Z,254.20
2022-12-03T18:56:54.991Z,231.60
2022-12-03T18:59:24.702Z,256.80
2022-12-03T19:01:52.813Z,249.60
2022-12-03T19:04:20.867Z,169.90
2022-12-03T19:06:49.191Z,175.80
2022-12-03T19:09:17.051Z,181.40
2022-12-03T19:11:44.983Z,175.20
2022-12-03T19:14:13.435Z,135.30
2022-12-03T19:16:42.899Z,150.10
2022-12-03T19:19:11.265Z,141.30
2022-12-03T19:21:40.486Z,243.50
2022-12-03T19:24:25.307Z,128.40
2022-12-03T19:26:55.646Z,168.30
2022-12-03T19:29:24.137Z,169.50
2022-12-03T19:31:52.264Z,142.80
2022-12-03T19:34:20.435Z,124.90
2022-12-03T19:36:48.560Z,133.60
2022-12-03T19:39:18.448Z,174.10
2022-12-03T19:41:52.387Z,135.50
2022-12-03T19:44:20.106Z,110.40
2022-12-03T19:46:51.238Z,133.90
2022-12-03T19:49:21.530Z,135.60
2022-12-03T19:51:49.885Z,140.70
2022-12-03T19:54:18.005Z,589.10
2022-12-03T19:56:46.410Z,525.10
2022-12-03T19:59:14.560Z,190.00
2022-12-03T20:01:43.428Z,226.30
2022-12-03T20:04:12.700Z,229.30
2022-12-03T20:06:40.684Z,158.00
2022-12-03T20:09:11.477Z,201.50
2022-12-03T20:11:41.781Z,296.30
2022-12-03T20:14:11.278Z,395.50
2022-12-03T20:16:39.773Z,431.40
2022-12-03T20:19:15.072Z,413.60
2022-12-03T20:21:49.020Z,277.90
2022-12-03T20:26:51.041Z,215.30
2022-12-03T20:29:29.319Z,151.20
2022-12-03T20:31:57.293Z,164.80
2022-12-03T20:34:25.177Z,264.80
2022-12-03T20:36:53.053Z,178.90
2022-12-03T20:39:21.732Z,143.80
2022-12-03T20:41:50.516Z,126.40
2022-12-03T20:44:19.937Z,139.00
2022-12-03T20:46:48.346Z,141.50
2022-12-03T20:49:16.375Z,115.30
2022-12-03T20:51:45.943Z,128.30
2022-12-03T20:54:15.618Z,132.70
2022-12-03T20:57:05.051Z,145.10
2022-12-03T20:59:33.001Z,192.10
2022-12-03T21:02:01.337Z,190.50
2022-12-03T21:04:29.261Z,227.60
2022-12-03T21:06:57.764Z,189.00
2022-12-03T21:09:27.494Z,162.40
2022-12-03T21:11:56.152Z,164.00
2022-12-03T21:14:24.044Z,200.70
2022-12-03T21:17:08.003Z,172.20
2022-12-03T21:19:37.917Z,206.50
2022-12-03T21:22:06.607Z,196.80
2022-12-03T21:24:34.707Z,185.20
2022-12-03T21:27:02.743Z,151.40
2022-12-03T21:29:38.021Z,135.40
2022-12-03T21:32:06.762Z,138.70
2022-12-03T21:34:36.559Z,123.30
2022-12-03T21:37:04.629Z,142.80
2022-12-03T21:39:32.818Z,141.80
2022-12-03T21:42:19.108Z,142.40
2022-12-03T21:44:49.091Z,152.70
2022-12-03T21:47:17.749Z,155.70
2022-12-03T21:49:47.519Z,142.80
2022-12-03T21:52:15.629Z,143.50
2022-12-03T21:54:44.072Z,162.60
2022-12-03T21:57:12.930Z,154.60
2022-12-03T21:59:42.443Z,149.20
2022-12-03T22:02:14.124Z,138.80
2022-12-03T22:04:42.304Z,144.80
2022-12-03T22:07:10.255Z,152.20
2022-12-03T22:09:39.050Z,142.80
2022-12-03T22:12:08.665Z,163.50
2022-12-03T22:14:36.446Z,145.40
2022-12-03T22:17:15.303Z,161.00
2022-12-03T22:19:44.288Z,188.80
2022-12-03T22:22:12.669Z,221.70
2022-12-03T22:24:41.671Z,147.00
2022-12-03T22:27:09.425Z,146.40
2022-12-03T22:29:38.382Z,123.80
2022-12-03T22:32:06.523Z,159.00
2022-12-03T22:34:35.132Z,162.50
2022-12-03T22:37:05.956Z,163.80
2022-12-03T22:39:34.132Z,194.10
2022-12-03T22:42:02.178Z,147.40
2022-12-03T22:44:32.019Z,153.00
2022-12-03T22:47:00.242Z,149.00
2022-12-03T22:49:28.932Z,149.00
2022-12-03T22:51:59.754Z,200.90
2022-12-03T22:54:28.123Z,190.30
2022-12-03T22:56:57.984Z,209.60
2022-12-03T22:59:26.237Z,207.60
2022-12-03T23:01:54.787Z,169.00
2022-12-03T23:04:23.486Z,200.00
2022-12-03T23:06:51.885Z,180.90
2022-12-03T23:09:22.933Z,152.80
2022-12-03T23:11:59.239Z,170.40
2022-12-03T23:14:27.260Z,151.30
2022-12-03T23:16:56.767Z,161.40
2022-12-03T23:19:27.280Z,172.30
2022-12-03T23:21:56.353Z,172.80
2022-12-03T23:24:26.588Z,142.70
2022-12-03T23:26:58.717Z,146.70
2022-12-03T23:29:30.199Z,155.40
2022-12-03T23:31:59.678Z,133.20
2022-12-03T23:34:28.409Z,149.80
2022-12-03T23:37:16.479Z,150.00
2022-12-03T23:39:50.106Z,150.90
2022-12-03T23:42:17.885Z,151.20
2022-12-03T23:44:45.674Z,173.10
2022-12-03T23:47:14.108Z,173.60
2022-12-03T23:49:41.825Z,157.10
2022-12-03T23:52:09.442Z,151.30
2022-12-03T23:54:37.770Z,149.50
2022-12-03T23:57:05.577Z,142.30
2022-12-03T23:59:33.214Z,146.00
